Time;durP1;ratioP1;P1;durP2;ratioP2;P2;SDS_P1;SDS_P2;PMS_P1;PMS_P2;Temp;Humidity;BMP_temperature;BMP_pressure;BME280_temperature;BME280_humidity;BME280_pressure;Samples;Min_cycle;Max_cycle;Signal;HPM_P1;HPM_P2
2021/12/09 00:01:21;;;;;;;159.52;65.50;;;;;;;-5.25;86.37;97211.03;1760966;81;21024;-57
2021/12/09 00:03:45;;;;;;;147.95;63.92;;;;;;;-5.22;86.20;97206.15;1781800;80;21012;-57
2021/12/09 00:06:12;;;;;;;161.07;65.17;;;;;;;-5.21;86.43;97206.99;1769582;80;20983;-57
2021/12/09 00:08:41;;;;;;;131.93;52.60;;;;;;;-5.24;86.21;97208.69;1761003;81;23178;-57
2021/12/09 00:11:07;;;;;;;151.78;60.25;;;;;;;-5.22;86.12;97210.11;1773024;80;37890;-57
2021/12/09 00:13:33;;;;;;;155.97;61.60;;;;;;;-5.25;86.44;97202.59;1792604;80;21028;-57
2021/12/09 00:15:59;;;;;;;143.02;59.67;;;;;;;-5.21;87.54;97197.23;1742748;80;20922;-57
2021/12/09 00:18:25;;;;;;;113.40;53.68;;;;;;;-5.08;87.12;97196.44;1791619;79;20968;-57
2021/12/09 00:20:52;;;;;;;137.88;56.35;;;;;;;-5.00;86.79;97187.51;1792615;80;21548;-57
2021/12/09 00:23:18;;;;;;;132.32;58.33;;;;;;;-4.95;86.58;97191.19;1792541;80;21020;-57
2021/12/09 00:25:44;;;;;;;145.17;60.67;;;;;;;-4.92;86.87;97196.06;1778419;80;21496;-57
2021/12/09 00:28:10;;;;;;;154.03;67.30;;;;;;;-4.86;86.53;97192.62;1744823;81;20932;-57
2021/12/09 00:30:35;;;;;;;159.40;73.35;;;;;;;-4.80;86.26;97196.27;1761120;81;21148;-57
2021/12/09 00:33:04;;;;;;;176.40;72.17;;;;;;;-4.84;86.51;97191.90;1757095;81;21580;-57
2021/12/09 00:35:41;;;;;;;168.85;74.77;;;;;;;-4.82;86.57;97191.18;1757611;80;21091;-57
2021/12/09 00:38:07;;;;;;;152.27;64.70;;;;;;;-4.80;86.43;97176.95;1778100;80;21064;-57
2021/12/09 00:40:32;;;;;;;183.35;79.80;;;;;;;-4.82;86.32;97176.64;1791674;80;21040;-57
2021/12/09 00:42:58;;;;;;;174.60;79.45;;;;;;;-4.80;85.98;97183.05;1775597;80;21005;-57
2021/12/09 00:45:24;;;;;;;189.90;85.03;;;;;;;-4.87;85.67;97179.58;1751463;81;21183;-57
2021/12/09 00:47:51;;;;;;;195.05;75.15;;;;;;;-4.79;85.87;97173.28;1764013;80;20988;-57
2021/12/09 00:50:18;;;;;;;157.47;70.80;;;;;;;-4.76;86.02;97168.42;1787777;79;21359;-57
2021/12/09 00:52:44;;;;;;;156.43;61.35;;;;;;;-4.75;85.97;97165.27;1758375;81;22043;-57
2021/12/09 00:55:10;;;;;;;144.07;58.30;;;;;;;-4.68;86.41;97164.25;1751665;81;21041;-57
2021/12/09 00:57:37;;;;;;;144.95;61.00;;;;;;;-4.62;86.39;97156.81;1751492;81;22364;-57
2021/12/09 01:00:14;;;;;;;143.35;57.88;;;;;;;-4.59;86.54;97160.38;1751480;81;21546;-57
2021/12/09 01:02:40;;;;;;;135.88;59.80;;;;;;;-4.56;86.55;97159.16;1751624;81;21284;-57
2021/12/09 01:05:08;;;;;;;147.10;66.30;;;;;;;-4.48;86.61;97172.67;1751346;79;21127;-57
2021/12/09 01:07:34;;;;;;;130.87;58.10;;;;;;;-4.46;86.28;97160.87;1744889;80;22272;-57
2021/12/09 01:10:00;;;;;;;151.20;66.33;;;;;;;-4.46;86.29;97159.55;1792936;80;21514;-57
2021/12/09 01:12:25;;;;;;;157.03;65.57;;;;;;;-4.49;86.66;97154.67;1792618;80;20862;-57
2021/12/09 01:14:52;;;;;;;169.77;69.53;;;;;;;-4.40;86.15;97139.41;1763783;80;20885;-57
2021/12/09 01:17:17;;;;;;;137.05;61.95;;;;;;;-4.41;86.27;97134.63;1732587;80;22112;-57
2021/12/09 01:19:43;;;;;;;143.52;66.10;;;;;;;-4.41;85.98;97135.14;1792460;80;20873;-58
2021/12/09 01:22:09;;;;;;;139.55;60.45;;;;;;;-4.38;86.03;97136.04;1755480;80;22327;-57
2021/12/09 01:24:35;;;;;;;135.05;56.85;;;;;;;-4.41;86.02;97133.30;1761094;81;20861;-57
2021/12/09 01:27:01;;;;;;;122.20;52.90;;;;;;;-4.43;85.92;97125.28;1761304;81;20892;-57
2021/12/09 01:29:39;;;;;;;125.72;54.00;;;;;;;-4.44;85.98;97126.28;1791506;80;20985;-57
2021/12/09 01:32:07;;;;;;;113.52;51.15;;;;;;;-4.41;86.46;97132.49;1755536;80;21066;-57
2021/12/09 01:34:34;;;;;;;117.45;52.33;;;;;;;-4.36;86.45;97127.37;1780282;80;21127;-57
2021/12/09 01:37:00;;;;;;;147.70;58.98;;;;;;;-4.32;86.60;97131.25;1760986;81;21514;-57
2021/12/09 01:39:28;;;;;;;142.75;61.77;;;;;;;-4.28;86.26;97124.00;1792375;80;20837;-57
2021/12/09 01:41:55;;;;;;;135.30;58.50;;;;;;;-4.25;86.78;97120.16;1792827;80;21016;-57
2021/12/09 01:44:22;;;;;;;137.18;59.42;;;;;;;-4.26;86.39;97123.31;1732981;80;21028;-57
2021/12/09 01:46:48;;;;;;;150.97;61.92;;;;;;;-4.28;86.80;97116.06;1746076;81;22342;-57
2021/12/09 01:49:14;;;;;;;142.80;63.35;;;;;;;-4.24;86.45;97109.87;1760287;81;21144;-57
2021/12/09 01:51:41;;;;;;;146.77;60.52;;;;;;;-4.24;86.40;97106.41;1760589;81;21062;-57
2021/12/09 01:54:08;;;;;;;114.05;52.53;;;;;;;-4.21;86.53;97104.15;1761180;81;20999;-57
2021/12/09 01:56:34;;;;;;;124.80;54.53;;;;;;;-4.27;86.51;97097.87;1755740;81;21017;-57
2021/12/09 01:59:03;;;;;;;138.25;57.45;;;;;;;-4.22;87.32;97100.39;1759406;81;21583;-57
2021/12/09 02:01:29;;;;;;;;;;;;;;;-4.17;86.97;97103.24;1763773;81;20992;-57
2021/12/09 02:03:55;;;;;;;125.70;54.30;;;;;;;-4.17;86.99;97101.41;1785695;80;20477;-57
2021/12/09 02:06:22;;;;;;;131.40;54.75;;;;;;;-4.12;87.07;97104.22;1762129;80;21093;-57
2021/12/09 02:08:48;;;;;;;115.62;52.93;;;;;;;-4.06;86.90;97098.61;1751597;81;20994;-57
2021/12/09 02:11:14;;;;;;;113.35;51.88;;;;;;;-4.10;87.26;97083.67;1755958;81;21852;-57
2021/12/09 02:13:41;;;;;;;110.35;50.00;;;;;;;-4.06;87.08;97082.73;1754880;81;21041;-57
2021/12/09 02:16:08;;;;;;;133.10;53.20;;;;;;;-3.98;86.86;97090.44;1742889;80;21067;-57
2021/12/09 02:18:34;;;;;;;107.25;48.63;;;;;;;-3.91;86.69;97093.88;1751631;81;21063;-57
2021/12/09 02:21:20;;;;;;;110.35;49.13;;;;;;;-3.83;86.70;97103.42;1755472;81;21059;-57
2021/12/09 02:23:49;;;;;;;98.40;42.75;;;;;;;-3.80;86.43;97097.69;1753177;81;21293;-57
2021/12/09 02:26:17;;;;;;;102.27;44.70;;;;;;;-3.79;86.73;97093.50;1751362;81;21006;-57
2021/12/09 02:28:43;;;;;;;110.28;50.28;;;;;;;-3.72;86.65;97095.61;1758320;81;21050;-57
2021/12/09 02:31:09;;;;;;;116.77;49.70;;;;;;;-3.69;86.77;97100.98;1757312;81;20874;-57
2021/12/09 02:33:35;;;;;;;119.28;53.08;;;;;;;-3.63;86.71;97099.34;1751559;81;20977;-57
2021/12/09 02:36:01;;;;;;;111.85;45.03;;;;;;;-3.57;86.66;97097.17;1755598;81;21171;-57
2021/12/09 02:38:27;;;;;;;108.80;45.80;;;;;;;-3.54;86.35;97098.88;1761219;81;21639;-57
2021/12/09 02:40:53;;;;;;;106.70;44.90;;;;;;;-3.62;86.23;97093.02;1772323;80;20885;-57
2021/12/09 02:43:27;;;;;;;99.37;43.92;;;;;;;-3.66;86.40;97096.61;1792453;80;21061;-57
2021/12/09 02:45:55;;;;;;;105.22;44.20;;;;;;;-3.62;86.66;97099.64;1792757;80;21581;-57
2021/12/09 02:48:21;;;;;;;99.20;44.80;;;;;;;-3.55;86.58;97104.39;1792545;80;21163;-57
2021/12/09 02:50:48;;;;;;;103.15;46.50;;;;;;;-3.46;86.56;97098.63;1792564;80;21012;-57
2021/12/09 02:53:15;;;;;;;96.57;43.70;;;;;;;-3.42;86.45;97093.70;1764470;80;21092;-57
2021/12/09 02:55:41;;;;;;;87.92;43.63;;;;;;;-3.35;86.47;97091.83;1735295;81;21567;-57
2021/12/09 02:58:06;;;;;;;101.97;47.80;;;;;;;-3.34;86.24;97093.45;1755951;81;20896;-57
2021/12/09 03:00:32;;;;;;;83.92;37.73;;;;;;;-3.30;86.32;97099.15;1761353;81;22330;-57
2021/12/09 03:02:59;;;;;;;100.85;41.00;;;;;;;-3.31;86.14;97097.53;1771620;80;21077;-57
2021/12/09 03:05:26;;;;;;;102.70;42.50;;;;;;;-3.29;86.23;97094.14;1782187;80;21012;-57
2021/12/09 03:07:52;;;;;;;99.75;42.62;;;;;;;-3.31;86.14;97093.04;1751075;81;21022;-57
2021/12/09 03:10:24;;;;;;;101.72;42.30;;;;;;;-3.27;86.14;97090.25;1751452;81;21025;-57
2021/12/09 03:12:57;;;;;;;104.20;45.63;;;;;;;-3.25;86.15;97088.19;1754664;81;21935;-57
2021/12/09 03:15:23;;;;;;;75.80;34.83;;;;;;;-3.24;86.72;97086.38;1740050;81;21582;-55
2021/12/09 03:17:49;;;;;;;98.97;41.85;;;;;;;-3.20;86.21;97090.20;1762059;80;21024;-57
2021/12/09 03:20:17;;;;;;;99.97;43.95;;;;;;;-3.33;86.04;97095.09;1792769;80;20858;-57
2021/12/09 03:22:43;;;;;;;95.22;44.23;;;;;;;-3.39;86.50;97094.62;1792295;80;21147;-57
2021/12/09 03:25:11;;;;;;;97.47;42.95;;;;;;;-3.39;86.96;97094.62;1792669;80;21579;-57
2021/12/09 03:27:37;;;;;;;104.05;45.15;;;;;;;-3.33;86.85;97103.53;1792304;80;21008;-57
2021/12/09 03:30:05;;;;;;;95.72;43.78;;;;;;;-3.31;86.46;97126.67;1792645;80;20889;-58
2021/12/09 03:32:30;;;;;;;103.75;42.38;;;;;;;-3.29;86.31;97121.97;1737036;80;21059;-57
2021/12/09 03:34:56;;;;;;;93.22;44.40;;;;;;;-3.32;86.44;97115.27;1751876;81;20851;-57
2021/12/09 03:37:24;;;;;;;102.47;41.63;;;;;;;-3.32;86.51;97119.23;1752412;81;21539;-57
2021/12/09 03:39:51;;;;;;;92.15;39.92;;;;;;;-3.27;86.56;97117.26;1761150;81;21546;-57
2021/12/09 03:42:21;;;;;;;93.35;39.83;;;;;;;-3.33;86.29;97117.63;1761061;81;21034;-57
2021/12/09 03:44:47;;;;;;;90.60;42.08;;;;;;;-3.35;86.30;97119.64;1760991;81;21043;-57
2021/12/09 03:47:15;;;;;;;103.80;43.85;;;;;;;-3.35;86.58;97117.00;1760933;81;21078;-57
2021/12/09 03:49:42;;;;;;;91.55;41.85;;;;;;;-3.31;86.88;97119.53;1761067;81;21626;-57
2021/12/09 03:52:08;;;;;;;84.80;35.70;;;;;;;-3.27;86.88;97115.94;1783579;80;20981;-57
2021/12/09 03:54:34;;;;;;;102.75;42.50;;;;;;;-3.26;86.63;97121.02;1751408;81;21575;-57
2021/12/09 03:57:00;;;;;;;87.57;39.23;;;;;;;-3.21;86.75;97129.14;1751800;81;20859;-58
2021/12/09 03:59:26;;;;;;;90.83;38.40;;;;;;;-3.18;86.19;97127.38;1751350;81;21527;-57
2021/12/09 04:01:52;;;;;;;81.72;37.23;;;;;;;-3.20;86.62;97114.05;1751624;81;21481;-57
2021/12/09 04:04:18;;;;;;;98.27;44.48;;;;;;;-3.27;87.98;97095.55;1760409;81;21600;-57
2021/12/09 04:06:45;;;;;;;101.02;39.20;;;;;;;-3.15;87.23;97103.64;1740307;80;20849;-57
2021/12/09 04:09:13;;;;;;;103.27;42.23;;;;;;;-3.17;87.31;97095.88;1783434;80;21126;-57
2021/12/09 04:11:39;;;;;;;69.27;27.95;;;;;;;-3.11;87.20;97087.59;1792697;80;21079;-57
2021/12/09 04:14:05;;;;;;;96.63;41.18;;;;;;;-3.10;86.52;97087.08;1753594;80;21527;-58
2021/12/09 04:16:31;;;;;;;82.00;36.95;;;;;;;-3.09;86.68;97084.20;1749166;79;21098;-57
2021/12/09 04:18:57;;;;;;;81.85;35.43;;;;;;;-3.13;87.25;97084.35;1744131;79;21655;-57
2021/12/09 04:21:23;;;;;;;84.67;37.40;;;;;;;-3.08;87.10;97082.36;1745971;81;20891;-57
2021/12/09 04:23:49;;;;;;;89.75;36.38;;;;;;;-3.07;86.80;97083.50;1761257;81;20999;-57
2021/12/09 04:26:15;;;;;;;82.55;32.15;;;;;;;-3.02;86.23;97083.64;1761362;81;21575;-57
2021/12/09 04:28:42;;;;;;;140.45;58.40;;;;;;;-3.02;85.94;97090.78;1761021;81;20908;-57
2021/12/09 04:31:08;;;;;;;142.30;62.70;;;;;;;-3.11;86.21;97080.97;1773800;80;20985;-57
2021/12/09 04:33:34;;;;;;;110.83;52.17;;;;;;;-3.09;86.50;97095.32;1792623;80;20865;-57
2021/12/09 04:36:00;;;;;;;97.55;42.45;;;;;;;-3.06;86.73;97096.23;1792679;80;21024;-57
2021/12/09 04:38:26;;;;;;;87.27;39.75;;;;;;;-3.07;87.32;97085.34;1767852;80;21446;-57
2021/12/09 04:40:52;;;;;;;82.82;40.17;;;;;;;-3.05;88.30;97085.92;1751676;81;20870;-57
2021/12/09 04:43:17;;;;;;;93.25;41.80;;;;;;;-3.00;87.91;97078.12;1756574;80;20967;-57
2021/12/09 04:45:43;;;;;;;91.15;41.50;;;;;;;-2.93;87.82;97077.56;1761232;81;20920;-57
2021/12/09 04:48:09;;;;;;;102.05;46.00;;;;;;;-2.88;87.73;97080.38;1775758;80;20984;-57
2021/12/09 04:50:37;;;;;;;96.78;44.25;;;;;;;-2.82;87.60;97072.86;1792587;80;21507;-58
2021/12/09 04:53:04;;;;;;;89.77;40.75;;;;;;;-2.76;87.58;97068.54;1777886;80;21058;-57
2021/12/09 04:55:30;;;;;;;83.80;41.08;;;;;;;-2.68;87.35;97072.23;1761286;81;21338;-57
2021/12/09 04:57:56;;;;;;;96.60;46.37;;;;;;;-2.66;87.33;97069.66;1771546;80;21000;-57
2021/12/09 05:00:23;;;;;;;113.28;54.73;;;;;;;-2.61;87.81;97067.17;1792655;80;21703;-57
2021/12/09 05:03:00;;;;;;;93.85;43.68;;;;;;;-2.58;87.40;97064.59;1792392;80;22270;-57
2021/12/09 05:05:17;;;;;;;84.65;41.20;;;;;;;-2.64;87.93;97050.38;1777892;80;20996;-57
2021/12/09 05:07:43;;;;;;;80.30;37.88;;;;;;;-2.59;87.50;97039.09;1792305;80;20913;-57
2021/12/09 05:10:09;;;;;;;139.25;57.17;;;;;;;-2.57;87.12;97040.48;1792704;80;21348;-57
2021/12/09 05:12:35;;;;;;;153.42;58.90;;;;;;;-2.59;86.66;97055.02;1780743;80;21075;-57
2021/12/09 05:15:01;;;;;;;138.45;57.53;;;;;;;-2.58;86.99;97057.44;1731043;82;21125;-57
2021/12/09 05:17:27;;;;;;;132.82;52.65;;;;;;;-2.59;86.46;97062.45;1746764;81;20916;-57
2021/12/09 05:19:53;;;;;;;136.20;59.80;;;;;;;-2.63;86.68;97067.91;1761368;81;20955;-58
2021/12/09 05:22:18;;;;;;;124.27;52.48;;;;;;;-2.62;87.31;97058.92;1761110;81;20884;-57
2021/12/09 05:24:48;;;;;;;115.25;51.80;;;;;;;-2.61;88.65;97045.95;1760897;81;22509;-58
2021/12/09 05:27:14;;;;;;;106.15;44.48;;;;;;;-2.57;88.47;97046.31;1787029;80;21545;-57
2021/12/09 05:29:42;;;;;;;187.03;77.95;;;;;;;-2.55;88.37;97036.31;1792131;80;21271;-57
2021/12/09 05:32:10;;;;;;;164.40;72.20;;;;;;;-2.50;87.44;97037.77;1757349;80;21065;-57
2021/12/09 05:34:47;;;;;;;97.37;44.70;;;;;;;-2.54;87.60;97046.41;1761200;81;27373;-57
2021/12/09 05:37:20;;;;;;;103.45;44.48;;;;;;;-2.50;87.71;97058.19;1787456;80;21016;-57
2021/12/09 05:39:47;;;;;;;95.67;44.23;;;;;;;-2.44;87.75;97049.36;1791439;80;21540;-57
2021/12/09 05:42:15;;;;;;;94.10;41.42;;;;;;;-2.42;88.09;97052.59;1791402;80;21004;-58
2021/12/09 05:44:41;;;;;;;95.17;42.53;;;;;;;-2.38;87.80;97062.56;1766446;80;21027;-57
2021/12/09 05:47:07;;;;;;;107.32;46.53;;;;;;;-2.31;87.71;97073.08;1761003;81;20872;-57
2021/12/09 05:49:34;;;;;;;95.12;43.75;;;;;;;-2.29;87.59;97081.66;1761245;81;20857;-57
2021/12/09 05:52:00;;;;;;;91.82;41.35;;;;;;;-2.30;87.47;97094.63;1709422;82;22241;-57
2021/12/09 05:54:26;;;;;;;94.07;41.23;;;;;;;-2.29;87.53;97093.08;1751238;81;20835;-57
2021/12/09 05:56:51;;;;;;;94.80;47.45;;;;;;;-2.37;87.98;97086.73;1740646;81;20880;-57
2021/12/09 05:59:17;;;;;;;92.08;49.03;;;;;;;-2.43;88.36;97096.08;1734142;81;20862;-57
2021/12/09 06:01:43;;;;;;;78.47;36.90;;;;;;;-2.42;88.10;97114.43;1750304;81;21022;-57
2021/12/09 06:04:10;;;;;;;79.10;37.25;;;;;;;-2.42;88.73;97118.41;1760978;81;21681;-57
2021/12/09 06:06:36;;;;;;;88.55;41.15;;;;;;;-2.44;89.00;97116.50;1748140;81;20986;-58
2021/12/09 06:09:04;;;;;;;85.50;39.98;;;;;;;-2.39;88.20;97122.48;1763294;80;20992;-57
2021/12/09 06:11:30;;;;;;;82.35;39.60;;;;;;;-2.38;88.23;97106.86;1792565;80;21016;-57
2021/12/09 06:13:56;;;;;;;76.15;32.48;;;;;;;-2.37;88.14;97099.19;1786821;80;21012;-57
2021/12/09 06:16:24;;;;;;;80.50;35.50;;;;;;;-2.37;88.55;97103.17;1745347;80;21468;-57
2021/12/09 06:18:51;;;;;;;76.55;26.90;;;;;;;-2.31;87.99;97116.87;1743173;80;20997;-57
2021/12/09 06:21:19;;;;;;;63.98;27.58;;;;;;;-2.27;87.78;97120.72;1742906;81;21086;-57
2021/12/09 06:23:46;;;;;;;90.10;39.45;;;;;;;-2.24;87.82;97120.79;1754668;80;21013;-57
2021/12/09 06:26:12;;;;;;;175.03;73.78;;;;;;;-2.19;87.76;97124.42;1759866;80;21026;-57
2021/12/09 06:28:38;;;;;;;167.07;71.28;;;;;;;-2.15;87.69;97130.89;1752725;81;21541;-57
2021/12/09 06:31:05;;;;;;;140.50;62.30;;;;;;;-2.14;87.77;97133.03;1731999;81;21116;-58
2021/12/09 06:33:32;;;;;;;95.12;44.42;;;;;;;-2.14;88.19;97139.66;1734162;81;21019;-57
2021/12/09 06:35:58;;;;;;;77.67;35.33;;;;;;;-2.13;88.04;97138.14;1750089;81;21529;-57
2021/12/09 06:38:24;;;;;;;62.10;29.72;;;;;;;-2.11;87.89;97136.59;1749021;81;21041;-57
2021/12/09 06:40:50;;;;;;;177.78;67.45;;;;;;;-2.10;87.82;97128.92;1760824;80;21720;-57
2021/12/09 06:43:16;;;;;;;174.05;66.92;;;;;;;-2.11;87.50;97134.75;1772607;80;20873;-57
2021/12/09 06:45:42;;;;;;;56.13;28.47;;;;;;;-2.11;87.39;97139.25;1792476;80;21667;-58
2021/12/09 06:48:09;;;;;;;87.08;38.35;;;;;;;-2.09;87.43;97149.13;1791279;80;21001;-57
2021/12/09 06:50:35;;;;;;;80.25;37.88;;;;;;;-2.04;87.47;97158.58;1791019;80;20981;-57
2021/12/09 06:53:01;;;;;;;69.72;32.55;;;;;;;-2.02;87.43;97133.42;1790606;80;21383;-58
2021/12/09 06:55:27;;;;;;;68.05;34.58;;;;;;;-2.01;87.49;97127.59;1750289;80;20877;-57
2021/12/09 06:57:52;;;;;;;141.65;58.35;;;;;;;-1.97;87.81;97131.41;1754219;81;20864;-59
2021/12/09 07:00:24;;;;;;;110.57;50.10;;;;;;;-1.98;87.22;97139.09;1728376;80;20849;-57
2021/12/09 07:02:50;;;;;;;79.55;37.23;;;;;;;-1.97;87.29;97133.26;1767909;80;21024;-57
2021/12/09 07:05:16;;;;;;;97.10;42.83;;;;;;;-1.99;87.48;97134.30;1763366;80;21545;-57
2021/12/09 07:07:42;;;;;;;93.70;48.33;;;;;;;-1.97;87.16;97135.91;1738840;80;21274;-57
2021/12/09 07:10:10;;;;;;;78.10;35.98;;;;;;;-1.91;87.38;97135.03;1747013;80;20896;-58
2021/12/09 07:12:37;;;;;;;96.57;38.55;;;;;;;-1.86;87.31;97120.59;1756969;80;21457;-57
2021/12/09 07:15:05;;;;;;;95.50;45.05;;;;;;;-1.82;87.26;97119.09;1747381;80;20966;-56
2021/12/09 07:17:30;;;;;;;89.67;40.63;;;;;;;-1.81;87.14;97122.85;1755710;80;21114;-57
2021/12/09 07:19:56;;;;;;;84.62;41.35;;;;;;;-1.82;86.98;97130.53;1758136;80;20872;-57
2021/12/09 07:22:22;;;;;;;80.87;38.35;;;;;;;-1.81;87.35;97130.02;1750787;80;20994;-58
2021/12/09 07:24:48;;;;;;;82.08;36.93;;;;;;;-1.82;87.53;97130.53;1740049;80;20869;-58
2021/12/09 07:27:14;;;;;;;86.17;41.90;;;;;;;-1.79;87.52;97123.47;1751269;80;20908;-58
2021/12/09 07:29:40;;;;;;;81.02;39.50;;;;;;;-1.76;87.29;97112.91;1745101;80;21100;-58
2021/12/09 07:32:06;;;;;;;152.27;85.40;;;;;;;-1.73;87.21;97111.92;1752500;80;20959;-57
2021/12/09 07:34:32;;;;;;;117.97;67.58;;;;;;;-1.75;87.33;97113.19;1752285;80;21111;-57
2021/12/09 07:37:03;;;;;;;118.42;67.37;;;;;;;-1.72;87.28;97111.41;1754142;80;21566;-57
2021/12/09 07:39:26;;;;;;;83.45;44.38;;;;;;;-1.70;87.17;97098.73;1746503;81;21023;-58
2021/12/09 07:41:52;;;;;;;118.13;52.95;;;;;;;-1.69;87.18;97089.73;1750298;80;21454;-57
2021/12/09 07:44:20;;;;;;;112.68;52.60;;;;;;;-1.64;87.21;97101.80;1749985;81;21065;-58
2021/12/09 07:46:48;;;;;;;94.87;45.28;;;;;;;-1.59;87.31;97111.77;1756383;80;21126;-58
2021/12/09 07:49:15;;;;;;;111.70;59.93;;;;;;;-1.62;86.86;97120.17;1762886;80;21113;-58
2021/12/09 07:51:41;;;;;;;91.42;47.20;;;;;;;-1.71;87.19;97110.38;1756017;81;21052;-58
2021/12/09 07:54:07;;;;;;;81.80;41.70;;;;;;;-1.66;87.26;97106.53;1754002;81;21896;-58
2021/12/09 07:56:33;;;;;;;92.08;42.73;;;;;;;-1.60;87.16;97104.32;1755260;80;20955;-58
2021/12/09 07:58:59;;;;;;;93.50;46.18;;;;;;;-1.67;87.14;97115.55;1773722;80;20981;-58
2021/12/09 08:01:25;;;;;;;77.80;40.78;;;;;;;-1.68;87.45;97111.27;1744569;80;21086;-57
2021/12/09 08:03:53;;;;;;;86.42;41.05;;;;;;;-1.65;87.05;97109.48;1763911;80;21067;-60
2021/12/09 08:06:19;;;;;;;73.40;40.33;;;;;;;-1.52;87.01;97105.34;1780650;80;21044;-60
2021/12/09 08:08:46;;;;;;;72.30;36.58;;;;;;;-1.45;86.64;97109.25;1747323;80;21187;-58
2021/12/09 08:11:12;;;;;;;91.37;43.75;;;;;;;-1.32;86.63;97108.23;1735238;80;20973;-58
2021/12/09 08:13:37;;;;;;;185.55;79.37;;;;;;;-1.30;85.73;97115.45;1746197;81;20866;-57
2021/12/09 08:16:04;;;;;;;366.55;156.52;;;;;;;-1.25;85.88;97112.95;1739800;81;21078;-57
2021/12/09 08:18:53;;;;;;;117.10;55.38;;;;;;;-1.18;85.92;97102.52;1744441;80;21129;-57
2021/12/09 08:21:00;;;;;;;110.95;50.28;;;;;;;-1.06;86.18;97103.86;1764516;80;21778;-58
2021/12/09 08:23:26;;;;;;;319.05;140.28;;;;;;;-1.07;85.92;97084.96;1754876;80;21641;-57
2021/12/09 08:25:52;;;;;;;256.93;115.90;;;;;;;-1.06;85.95;97080.45;1745960;81;21606;-58
2021/12/09 08:28:18;;;;;;;91.10;48.05;;;;;;;-1.02;86.01;97082.44;1750351;80;21484;-58
2021/12/09 08:30:45;;;;;;;86.20;45.52;;;;;;;-1.02;85.71;97081.63;1751736;80;21278;-58
2021/12/09 08:33:10;;;;;;;85.38;46.37;;;;;;;-1.05;85.82;97092.70;1742050;81;21240;-57
2021/12/09 08:35:36;;;;;;;84.37;45.98;;;;;;;-1.01;85.69;97109.31;1747552;81;22653;-58
2021/12/09 08:38:06;;;;;;;90.35;42.90;;;;;;;-0.94;85.98;97117.17;1736901;80;20905;-58
2021/12/09 08:40:32;;;;;;;82.67;41.83;;;;;;;-0.86;85.97;97120.83;1743853;80;21092;-58
2021/12/09 08:42:58;;;;;;;87.15;42.03;;;;;;;-0.74;86.04;97128.85;1757561;80;22259;-58
2021/12/09 08:45:24;;;;;;;80.47;36.55;;;;;;;-0.67;85.91;97138.36;1744325;81;21286;-58
2021/12/09 08:47:50;;;;;;;83.35;35.83;;;;;;;-0.63;85.75;97145.34;1738903;81;21582;-58
2021/12/09 08:50:19;;;;;;;91.40;43.25;;;;;;;-0.66;85.48;97133.32;1739291;80;21019;-58
2021/12/09 08:52:46;;;;;;;72.60;38.55;;;;;;;-0.73;85.29;97125.95;1760465;80;21199;-58
2021/12/09 08:55:12;;;;;;;75.37;37.00;;;;;;;-0.82;84.32;97106.58;1746261;80;21377;-58
2021/12/09 08:57:38;;;;;;;84.85;39.20;;;;;;;-0.84;84.52;97100.16;1753208;80;20909;-58
2021/12/09 09:00:08;;;;;;;84.58;39.95;;;;;;;-0.76;84.68;97103.81;1758433;80;21073;-58
2021/12/09 09:02:35;;;;;;;84.95;38.83;;;;;;;-0.66;85.06;97097.40;1748587;81;21111;-58
2021/12/09 09:05:01;;;;;;;86.30;39.78;;;;;;;-0.62;85.06;97088.42;1756708;81;21094;-58
2021/12/09 09:07:27;;;;;;;83.37;41.15;;;;;;;-0.60;84.61;97085.84;1739311;80;21813;-57
2021/12/09 09:09:52;;;;;;;76.47;38.85;;;;;;;-0.68;83.92;97086.18;1729994;80;20869;-58
2021/12/09 09:12:19;;;;;;;79.37;38.80;;;;;;;-0.79;84.33;97078.98;1753860;80;21085;-58
2021/12/09 09:14:45;;;;;;;81.80;40.23;;;;;;;-0.69;84.77;97085.05;1756147;80;21036;-58
2021/12/09 09:17:11;;;;;;;87.15;42.00;;;;;;;-0.61;84.99;97102.02;1745281;80;21125;-58
2021/12/09 09:19:37;;;;;;;101.22;47.45;;;;;;;-0.55;85.00;97089.13;1754615;80;21301;-57
2021/12/09 09:22:04;;;;;;;68.83;34.53;;;;;;;-0.58;84.52;97090.92;1756655;80;20905;-57
2021/12/09 09:24:30;;;;;;;67.80;29.50;;;;;;;-0.62;84.51;97076.45;1750913;80;21163;-58
2021/12/09 09:26:56;;;;;;;68.90;31.52;;;;;;;-0.61;84.54;97065.56;1731383;81;21561;-58
2021/12/09 09:29:24;;;;;;;61.02;29.80;;;;;;;-0.60;84.73;97071.70;1783935;79;20976;-58
2021/12/09 09:31:50;;;;;;;67.12;33.28;;;;;;;-0.49;84.11;97072.76;1767210;81;21148;-58
2021/12/09 09:34:16;;;;;;;65.40;31.02;;;;;;;-0.42;84.15;97064.95;1750137;80;21082;-58
2021/12/09 09:36:44;;;;;;;63.63;31.02;;;;;;;-0.31;84.53;97064.12;1754767;79;20872;-58
2021/12/09 09:39:22;;;;;;;63.00;27.73;;;;;;;-0.24;84.64;97065.85;1748110;80;21566;-58
2021/12/09 09:41:54;;;;;;;71.53;33.55;;;;;;;-0.29;84.12;97062.55;1756056;80;21041;-58
2021/12/09 09:44:17;;;;;;;59.93;31.12;;;;;;;-0.30;84.20;97055.61;1761134;80;21079;-58
2021/12/09 09:46:43;;;;;;;61.92;30.10;;;;;;;-0.31;84.15;97044.15;1742447;80;21127;-58
2021/12/09 09:49:08;;;;;;;59.53;28.38;;;;;;;-0.33;84.19;97054.23;1726094;81;21392;-58
2021/12/09 09:51:35;;;;;;;64.80;31.33;;;;;;;-0.35;83.93;97054.96;1746735;81;20878;-58
2021/12/09 09:54:03;;;;;;;73.17;36.60;;;;;;;-0.32;84.41;97053.70;1755016;81;21122;-58
2021/12/09 09:56:30;;;;;;;62.40;32.08;;;;;;;-0.37;83.73;97054.39;1744383;81;21981;-57
2021/12/09 09:59:01;;;;;;;63.15;29.90;;;;;;;-0.36;84.11;97057.86;1747548;81;21102;-58
2021/12/09 10:01:28;;;;;;;70.67;30.92;;;;;;;-0.42;83.95;97044.98;1734963;81;21058;-58
2021/12/09 10:04:09;;;;;;;69.60;30.70;;;;;;;-0.52;84.15;97039.41;1749072;81;21029;-58
2021/12/09 10:06:22;;;;;;;69.92;34.45;;;;;;;-0.61;84.14;97038.95;1733550;81;21115;-58
2021/12/09 10:08:48;;;;;;;69.95;33.18;;;;;;;-0.63;84.63;97026.94;1753505;81;20995;-58
2021/12/09 10:11:13;;;;;;;68.55;33.00;;;;;;;-0.70;84.63;97021.72;1741120;81;20975;-58
2021/12/09 10:13:41;;;;;;;69.30;30.85;;;;;;;-0.73;84.57;97015.55;1744086;81;21567;-58
2021/12/09 10:16:26;;;;;;;96.02;41.20;;;;;;;-0.91;85.04;97020.46;1754896;81;21480;-58
2021/12/09 10:18:53;;;;;;;74.97;33.40;;;;;;;-0.79;85.00;97027.63;1745911;81;21292;-58
2021/12/09 10:21:23;;;;;;;73.57;33.88;;;;;;;-0.75;85.13;97018.97;1748477;81;21554;-58
2021/12/09 10:24:03;;;;;;;67.75;31.45;;;;;;;-0.67;85.03;97042.56;1750043;81;20996;-58
2021/12/09 10:26:36;;;;;;;69.90;35.38;;;;;;;-0.52;84.77;97043.41;1746339;81;21113;-58
2021/12/09 10:29:15;;;;;;;69.20;33.15;;;;;;;-0.41;84.80;97032.48;1741456;81;21146;-58
2021/12/09 10:31:54;;;;;;;70.72;31.20;;;;;;;-0.34;84.53;97023.85;1733890;81;21113;-58
2021/12/09 10:34:33;;;;;;;64.53;30.47;;;;;;;-0.45;83.94;97021.47;1753799;81;21182;-57
2021/12/09 10:36:59;;;;;;;75.85;36.05;;;;;;;-0.38;84.01;97017.36;1746342;81;21059;-58
2021/12/09 10:39:40;;;;;;;75.92;35.40;;;;;;;-0.34;83.99;97023.33;1743801;81;21641;-58
2021/12/09 10:42:14;;;;;;;70.83;35.23;;;;;;;-0.21;84.23;97014.78;1754495;81;21601;-60
2021/12/09 10:44:59;;;;;;;75.83;33.20;;;;;;;-0.18;84.05;97017.77;1754378;81;21048;-57
2021/12/09 10:50:23;;;;;;;77.65;37.88;;;;;;;-0.07;84.20;97013.48;1751987;81;21065;-57
2021/12/09 10:52:50;;;;;;;68.25;32.95;;;;;;;-0.05;84.23;97002.06;1734460;80;21566;-57
2021/12/09 10:55:27;;;;;;;76.53;37.42;;;;;;;-0.11;83.81;96994.48;1758913;80;21138;-57
2021/12/09 10:57:57;;;;;;;68.05;35.52;;;;;;;-0.11;83.92;96997.15;1763953;80;21063;-58
2021/12/09 11:00:45;;;;;;;68.02;34.15;;;;;;;-0.18;84.03;96993.81;1755844;80;21543;-57
2021/12/09 11:03:16;;;;;;;66.92;28.60;;;;;;;-0.27;83.79;96983.77;1742070;81;21129;-58
2021/12/09 11:05:56;;;;;;;85.77;37.60;;;;;;;-0.53;83.90;96975.25;1759189;80;21086;-58
2021/12/09 11:08:35;;;;;;;76.53;37.17;;;;;;;-0.51;84.11;96981.67;1745784;80;21557;-58
2021/12/09 11:11:17;;;;;;;78.25;36.80;;;;;;;-0.53;84.26;96981.91;1768694;80;21147;-59
2021/12/09 11:13:59;;;;;;;76.20;33.33;;;;;;;-0.53;84.08;96983.77;1743074;80;21536;-59
2021/12/09 11:16:28;;;;;;;71.15;37.10;;;;;;;-0.60;84.53;96970.58;1747310;80;21016;-58
2021/12/09 11:19:12;;;;;;;72.22;33.78;;;;;;;-0.60;84.55;96978.56;1750385;80;21731;-58